TimeEST,TemperatureF,Dew PointF,Humidity,Sea Level PressureIn,VisibilityMPH,Wind Direction,Wind SpeedMPH,Gust SpeedMPH,PrecipitationIn,Events,Conditions,WindDirDegrees,DateUTC
12:15 AM,44.6,44.6,100,29.78,10.0,NW,10.4,18.4,N/A,,Overcast,310,2013-02-14 05:15:00
12:35 AM,42.8,42.8,100,29.79,10.0,NW,9.2,-,N/A,,Mostly Cloudy,310,2013-02-14 05:35:00
12:55 AM,42.8,41.0,93,29.81,10.0,NW,10.4,-,N/A,,Scattered Clouds,310,2013-02-14 05:55:00
1:15 AM,42.8,41.0,93,29.82,10.0,NW,9.2,-,N/A,,Clear,310,2013-02-14 06:15:00
1:35 AM,41.0,39.2,93,29.84,10.0,NW,5.8,-,N/A,,Clear,320,2013-02-14 06:35:00
1:55 AM,41.0,39.2,93,29.85,10.0,NNW,6.9,-,N/A,,Scattered Clouds,330,2013-02-14 06:55:00
2:15 AM,39.2,37.4,93,29.85,10.0,NW,4.6,-,N/A,,Scattered Clouds,320,2013-02-14 07:15:00
2:35 AM,39.2,37.4,93,29.86,10.0,NW,3.5,-,N/A,,Clear,320,2013-02-14 07:35:00
2:55 AM,39.2,37.4,93,29.87,10.0,NW,3.5,-,N/A,,Clear,320,2013-02-14 07:55:00
3:15 AM,37.4,37.4,100,29.87,10.0,NW,4.6,-,N/A,,Clear,320,2013-02-14 08:15:00
3:35 AM,37.4,37.4,100,29.89,10.0,NW,3.5,-,N/A,,Clear,310,2013-02-14 08:35:00
3:55 AM,37.4,37.4,100,29.89,10.0,Calm,Calm,-,N/A,,Clear,0,2013-02-14 08:55:00
4:15 AM,37.4,37.4,100,29.91,10.0,Calm,Calm,-,N/A,,Clear,0,2013-02-14 09:15:00
4:35 AM,35.6,35.6,100,29.92,7.0,Calm,Calm,-,N/A,,Clear,0,2013-02-14 09:35:00
5:15 AM,35.6,35.6,100,29.94,7.0,NW,3.5,-,N/A,,Clear,310,2013-02-14 10:15:00
5:35 AM,35.6,35.6,100,29.94,5.0,NW,3.5,-,N/A,,Clear,310,2013-02-14 10:35:00
5:55 AM,35.6,35.6,100,29.96,5.0,Calm,Calm,-,N/A,,Clear,0,2013-02-14 10:55:00
6:15 AM,33.8,33.8,100,29.97,1.5,Calm,Calm,-,N/A,,Clear,0,2013-02-14 11:15:00
6:35 AM,32.0,32.0,100,29.97,1.8,Calm,Calm,-,N/A,,Clear,0,2013-02-14 11:35:00
6:55 AM,33.8,33.8,100,29.97,2.0,Calm,Calm,-,N/A,,Clear,0,2013-02-14 11:55:00
7:15 AM,33.8,33.8,100,29.98,3.0,Calm,Calm,-,N/A,,Clear,0,2013-02-14 12:15:00
7:35 AM,33.8,33.8,100,29.99,2.5,NW,3.5,-,N/A,,Clear,310,2013-02-14 12:35:00
7:55 AM,35.6,35.6,100,30.00,3.0,NW,4.6,-,N/A,,Clear,310,2013-02-14 12:55:00
8:15 AM,37.4,37.4,100,30.01,5.0,NW,3.5,-,N/A,,Clear,310,2013-02-14 13:15:00
8:35 AM,39.2,39.2,100,30.02,7.0,WNW,3.5,-,N/A,,Clear,290,2013-02-14 13:35:00
8:55 AM,39.2,39.2,100,30.03,10.0,Calm,Calm,-,N/A,,Clear,0,2013-02-14 13:55:00
9:15 AM,41.0,39.2,93,30.04,10.0,Calm,Calm,-,N/A,,Clear,0,2013-02-14 14:15:00
9:35 AM,42.8,37.4,81,30.05,10.0,NE,3.5,-,N/A,,Clear,40,2013-02-14 14:35:00
10:15 AM,44.6,37.4,76,30.05,10.0,North,5.8,-,N/A,,Clear,350,2013-02-14 15:15:00
10:35 AM,44.6,35.6,71,30.04,10.0,Calm,Calm,-,N/A,,Clear,0,2013-02-14 15:35:00
10:55 AM,46.4,35.6,66,30.03,10.0,NNE,4.6,-,N/A,,Clear,30,2013-02-14 15:55:00
11:15 AM,46.4,35.6,66,30.04,10.0,Calm,Calm,-,N/A,,Scattered Clouds,0,2013-02-14 16:15:00
11:35 AM,48.2,35.6,62,30.05,10.0,WNW,3.5,-,N/A,,Scattered Clouds,300,2013-02-14 16:35:00
11:55 AM,48.2,33.8,58,30.05,10.0,Calm,Calm,-,N/A,,Scattered Clouds,0,2013-02-14 16:55:00
12:15 PM,48.2,33.8,58,30.03,10.0,Calm,Calm,-,N/A,,Mostly Cloudy,0,2013-02-14 17:15:00
12:35 PM,48.2,33.8,58,30.03,10.0,Calm,Calm,-,N/A,,Mostly Cloudy,0,2013-02-14 17:35:00
12:55 PM,48.2,33.8,58,30.02,10.0,West,3.5,-,N/A,,Overcast,270,2013-02-14 17:55:00
1:15 PM,48.2,35.6,62,30.02,10.0,Calm,Calm,-,N/A,,Overcast,0,2013-02-14 18:15:00
1:35 PM,48.2,35.6,62,30.02,10.0,Calm,Calm,-,N/A,,Overcast,0,2013-02-14 18:35:00
1:55 PM,48.2,33.8,58,30.02,10.0,Calm,Calm,-,N/A,,Overcast,0,2013-02-14 18:55:00
2:15 PM,50.0,33.8,54,30.02,10.0,Calm,Calm,-,N/A,,Mostly Cloudy,0,2013-02-14 19:15:00
2:35 PM,51.8,35.6,54,30.01,10.0,SW,3.5,-,N/A,,Scattered Clouds,220,2013-02-14 19:35:00
2:55 PM,50.0,35.6,58,30.01,10.0,West,5.8,-,N/A,,Scattered Clouds,260,2013-02-14 19:55:00
3:15 PM,50.0,35.6,58,30.01,10.0,West,4.6,-,N/A,,Scattered Clouds,280,2013-02-14 20:15:00
3:35 PM,50.0,35.6,58,30.01,10.0,SW,3.5,-,N/A,,Mostly Cloudy,230,2013-02-14 20:35:00
3:55 PM,50.0,35.6,58,30.02,10.0,WSW,3.5,-,N/A,,Scattered Clouds,240,2013-02-14 20:55:00
4:15 PM,50.0,35.6,58,30.01,10.0,West,4.6,-,N/A,,Scattered Clouds,260,2013-02-14 21:15:00
4:35 PM,50.0,35.6,58,30.02,10.0,West,3.5,-,N/A,,Clear,270,2013-02-14 21:35:00
4:55 PM,48.2,35.6,62,30.02,10.0,Calm,Calm,-,N/A,,Scattered Clouds,0,2013-02-14 21:55:00
5:15 PM,48.2,35.6,62,30.02,10.0,West,3.5,-,N/A,,Scattered Clouds,260,2013-02-14 22:15:00
5:35 PM,46.4,37.4,71,30.02,10.0,Calm,Calm,-,N/A,,Clear,0,2013-02-14 22:35:00
5:55 PM,44.6,37.4,76,30.02,10.0,Calm,Calm,-,N/A,,Clear,0,2013-02-14 22:55:00
6:15 PM,42.8,39.2,87,30.03,10.0,Calm,Calm,-,N/A,,Clear,0,2013-02-14 23:15:00
6:35 PM,42.8,39.2,87,30.03,10.0,Calm,Calm,-,N/A,,Clear,0,2013-02-14 23:35:00
6:55 PM,41.0,39.2,93,30.03,10.0,Calm,Calm,-,N/A,,Clear,0,2013-02-14 23:55:00
7:15 PM,41.0,39.2,93,30.03,10.0,Calm,Calm,-,N/A,,Clear,0,2013-02-15 00:15:00
7:35 PM,39.2,39.2,100,30.04,10.0,Calm,Calm,-,N/A,,Clear,0,2013-02-15 00:35:00
7:55 PM,39.2,39.2,100,30.05,10.0,Calm,Calm,-,N/A,,Clear,0,2013-02-15 00:55:00
8:15 PM,39.2,39.2,100,30.05,10.0,Calm,Calm,-,N/A,,Clear,0,2013-02-15 01:15:00
8:35 PM,37.4,37.4,100,30.06,10.0,Calm,Calm,-,N/A,,Clear,0,2013-02-15 01:35:00
8:55 PM,37.4,37.4,100,30.07,10.0,Calm,Calm,-,N/A,,Clear,0,2013-02-15 01:55:00
9:15 PM,39.2,39.2,100,30.07,10.0,Calm,Calm,-,N/A,,Clear,0,2013-02-15 02:15:00
9:35 PM,39.2,37.4,93,30.07,10.0,Calm,Calm,-,N/A,,Clear,0,2013-02-15 02:35:00
9:55 PM,37.4,35.6,93,30.07,10.0,Calm,Calm,-,N/A,,Clear,0,2013-02-15 02:55:00
10:15 PM,35.6,35.6,100,30.09,10.0,Calm,Calm,-,N/A,,Clear,0,2013-02-15 03:15:00
10:35 PM,35.6,35.6,100,30.08,10.0,Calm,Calm,-,N/A,,Clear,0,2013-02-15 03:35:00
10:55 PM,35.6,35.6,100,30.09,10.0,Calm,Calm,-,N/A,,Clear,0,2013-02-15 03:55:00
11:15 PM,33.8,33.8,100,30.09,10.0,Calm,Calm,-,N/A,,Clear,0,2013-02-15 04:15:00
11:35 PM,35.6,35.6,100,30.07,10.0,Calm,Calm,-,N/A,,Clear,0,2013-02-15 04:35:00
11:55 PM,35.6,35.6,100,30.07,7.0,Calm,Calm,-,N/A,,Clear,0,2013-02-15 04:55:00